sensor_id;sensor_type;location;lat;lon;timestamp;P1;durP1;ratioP1;P2;durP2;ratioP2
22967;SDS011;11650;48.106;-1.696;2022-09-09T00:04:39;18.37;;;4.60;;
22967;SDS011;11650;48.106;-1.696;2022-09-09T00:06:59;22.50;;;4.30;;
22967;SDS011;11650;48.106;-1.696;2022-09-09T00:09:51;28.47;;;3.97;;
22967;SDS011;11650;48.106;-1.696;2022-09-09T00:15:25;16.37;;;3.80;;
22967;SDS011;11650;48.106;-1.696;2022-09-09T00:21:13;23.80;;;4.40;;
22967;SDS011;11650;48.106;-1.696;2022-09-09T00:23:50;23.10;;;4.53;;
22967;SDS011;11650;48.106;-1.696;2022-09-09T00:31:30;25.20;;;4.40;;
22967;SDS011;11650;48.106;-1.696;2022-09-09T00:33:58;21.87;;;4.23;;
22967;SDS011;11650;48.106;-1.696;2022-09-09T00:36:29;24.97;;;4.40;;
22967;SDS011;11650;48.106;-1.696;2022-09-09T00:38:59;21.33;;;4.23;;
22967;SDS011;11650;48.106;-1.696;2022-09-09T00:41:51;19.10;;;4.03;;
22967;SDS011;11650;48.106;-1.696;2022-09-09T00:44:33;21.80;;;4.40;;
22967;SDS011;11650;48.106;-1.696;2022-09-09T00:52:40;25.13;;;4.03;;
22967;SDS011;11650;48.106;-1.696;2022-09-09T00:55:21;24.13;;;4.20;;
22967;SDS011;11650;48.106;-1.696;2022-09-09T00:58:05;22.03;;;3.90;;
22967;SDS011;11650;48.106;-1.696;2022-09-09T01:00:41;24.63;;;5.13;;
22967;SDS011;11650;48.106;-1.696;2022-09-09T01:11:23;24.70;;;4.20;;
22967;SDS011;11650;48.106;-1.696;2022-09-09T01:16:56;22.40;;;3.97;;
22967;SDS011;11650;48.106;-1.696;2022-09-09T01:19:36;23.13;;;3.43;;
22967;SDS011;11650;48.106;-1.696;2022-09-09T01:22:28;19.73;;;3.80;;
22967;SDS011;11650;48.106;-1.696;2022-09-09T01:27:44;17.20;;;3.57;;
22967;SDS011;11650;48.106;-1.696;2022-09-09T01:30:14;11.83;;;3.20;;
22967;SDS011;11650;48.106;-1.696;2022-09-09T01:32:49;14.57;;;3.13;;
22967;SDS011;11650;48.106;-1.696;2022-09-09T01:38:02;14.27;;;3.27;;
22967;SDS011;11650;48.106;-1.696;2022-09-09T01:40:28;22.43;;;4.33;;
22967;SDS011;11650;48.106;-1.696;2022-09-09T01:42:54;25.13;;;4.30;;
22967;SDS011;11650;48.106;-1.696;2022-09-09T01:45:20;26.07;;;4.63;;
22967;SDS011;11650;48.106;-1.696;2022-09-09T01:47:47;21.80;;;4.37;;
22967;SDS011;11650;48.106;-1.696;2022-09-09T01:50:14;16.77;;;3.40;;
22967;SDS011;11650;48.106;-1.696;2022-09-09T01:52:41;21.87;;;4.30;;
22967;SDS011;11650;48.106;-1.696;2022-09-09T01:55:08;22.97;;;4.00;;
22967;SDS011;11650;48.106;-1.696;2022-09-09T02:00:13;17.87;;;3.97;;
22967;SDS011;11650;48.106;-1.696;2022-09-09T02:02:44;17.17;;;3.77;;
22967;SDS011;11650;48.106;-1.696;2022-09-09T02:08:04;12.30;;;3.10;;
22967;SDS011;11650;48.106;-1.696;2022-09-09T02:10:43;18.37;;;3.50;;
22967;SDS011;11650;48.106;-1.696;2022-09-09T02:13:14;21.07;;;3.43;;
22967;SDS011;11650;48.106;-1.696;2022-09-09T02:15:55;14.97;;;3.37;;
22967;SDS011;11650;48.106;-1.696;2022-09-09T02:18:35;17.43;;;3.50;;
22967;SDS011;11650;48.106;-1.696;2022-09-09T02:21:09;17.27;;;3.47;;
22967;SDS011;11650;48.106;-1.696;2022-09-09T02:23:39;18.00;;;3.63;;
22967;SDS011;11650;48.106;-1.696;2022-09-09T02:26:08;18.33;;;3.10;;
22967;SDS011;11650;48.106;-1.696;2022-09-09T02:28:38;20.37;;;3.57;;
22967;SDS011;11650;48.106;-1.696;2022-09-09T02:31:07;15.97;;;3.00;;
22967;SDS011;11650;48.106;-1.696;2022-09-09T02:33:37;14.40;;;2.60;;
22967;SDS011;11650;48.106;-1.696;2022-09-09T02:36:06;18.73;;;3.00;;
22967;SDS011;11650;48.106;-1.696;2022-09-09T02:38:35;13.67;;;2.40;;
22967;SDS011;11650;48.106;-1.696;2022-09-09T02:41:06;15.20;;;2.93;;
22967;SDS011;11650;48.106;-1.696;2022-09-09T02:43:34;15.87;;;2.53;;
22967;SDS011;11650;48.106;-1.696;2022-09-09T02:53:43;18.27;;;2.73;;
22967;SDS011;11650;48.106;-1.696;2022-09-09T02:56:25;16.97;;;3.17;;
22967;SDS011;11650;48.106;-1.696;2022-09-09T02:58:53;15.73;;;3.07;;
22967;SDS011;11650;48.106;-1.696;2022-09-09T03:01:20;16.13;;;3.40;;
22967;SDS011;11650;48.106;-1.696;2022-09-09T03:03:46;15.97;;;3.50;;
22967;SDS011;11650;48.106;-1.696;2022-09-09T03:06:11;12.27;;;3.17;;
22967;SDS011;11650;48.106;-1.696;2022-09-09T03:08:37;15.77;;;2.90;;
22967;SDS011;11650;48.106;-1.696;2022-09-09T03:11:03;11.90;;;2.13;;
22967;SDS011;11650;48.106;-1.696;2022-09-09T03:13:29;11.07;;;2.67;;
22967;SDS011;11650;48.106;-1.696;2022-09-09T03:15:55;17.83;;;2.90;;
22967;SDS011;11650;48.106;-1.696;2022-09-09T03:18:20;14.73;;;2.60;;
22967;SDS011;11650;48.106;-1.696;2022-09-09T03:20:46;17.80;;;3.10;;
22967;SDS011;11650;48.106;-1.696;2022-09-09T03:23:16;18.97;;;3.00;;
22967;SDS011;11650;48.106;-1.696;2022-09-09T03:25:49;16.23;;;2.83;;
22967;SDS011;11650;48.106;-1.696;2022-09-09T03:28:16;13.30;;;2.70;;
22967;SDS011;11650;48.106;-1.696;2022-09-09T03:30:42;15.00;;;2.47;;
22967;SDS011;11650;48.106;-1.696;2022-09-09T03:33:07;14.20;;;3.00;;
22967;SDS011;11650;48.106;-1.696;2022-09-09T03:35:33;15.27;;;2.87;;
22967;SDS011;11650;48.106;-1.696;2022-09-09T03:37:59;17.90;;;2.50;;
22967;SDS011;11650;48.106;-1.696;2022-09-09T03:40:25;10.30;;;2.20;;
22967;SDS011;11650;48.106;-1.696;2022-09-09T03:42:51;18.83;;;3.03;;
22967;SDS011;11650;48.106;-1.696;2022-09-09T03:45:17;16.43;;;2.70;;
22967;SDS011;11650;48.106;-1.696;2022-09-09T03:47:43;12.93;;;2.87;;
22967;SDS011;11650;48.106;-1.696;2022-09-09T03:50:09;19.20;;;3.30;;
22967;SDS011;11650;48.106;-1.696;2022-09-09T03:52:36;13.17;;;2.70;;
22967;SDS011;11650;48.106;-1.696;2022-09-09T03:55:03;14.50;;;2.20;;
22967;SDS011;11650;48.106;-1.696;2022-09-09T03:57:29;17.47;;;3.83;;
22967;SDS011;11650;48.106;-1.696;2022-09-09T03:59:55;15.77;;;2.97;;
22967;SDS011;11650;48.106;-1.696;2022-09-09T04:02:21;20.30;;;3.10;;
22967;SDS011;11650;48.106;-1.696;2022-09-09T04:04:47;15.93;;;2.80;;
22967;SDS011;11650;48.106;-1.696;2022-09-09T04:07:12;20.53;;;3.40;;
22967;SDS011;11650;48.106;-1.696;2022-09-09T04:09:38;19.77;;;3.03;;
22967;SDS011;11650;48.106;-1.696;2022-09-09T04:12:04;18.77;;;2.80;;
22967;SDS011;11650;48.106;-1.696;2022-09-09T04:14:31;13.90;;;2.77;;
22967;SDS011;11650;48.106;-1.696;2022-09-09T04:16:56;16.97;;;3.30;;
22967;SDS011;11650;48.106;-1.696;2022-09-09T04:19:24;15.40;;;2.70;;
22967;SDS011;11650;48.106;-1.696;2022-09-09T04:21:50;15.83;;;2.70;;
22967;SDS011;11650;48.106;-1.696;2022-09-09T04:24:16;21.70;;;3.27;;
22967;SDS011;11650;48.106;-1.696;2022-09-09T04:26:42;15.77;;;3.13;;
22967;SDS011;11650;48.106;-1.696;2022-09-09T04:29:08;18.30;;;3.13;;
22967;SDS011;11650;48.106;-1.696;2022-09-09T04:31:34;14.93;;;3.60;;
22967;SDS011;11650;48.106;-1.696;2022-09-09T04:33:59;13.90;;;2.90;;
22967;SDS011;11650;48.106;-1.696;2022-09-09T04:36:30;14.77;;;2.90;;
22967;SDS011;11650;48.106;-1.696;2022-09-09T04:38:57;23.67;;;2.93;;
22967;SDS011;11650;48.106;-1.696;2022-09-09T04:41:22;16.40;;;2.77;;
22967;SDS011;11650;48.106;-1.696;2022-09-09T04:43:48;17.30;;;2.93;;
22967;SDS011;11650;48.106;-1.696;2022-09-09T04:46:14;17.33;;;3.10;;
22967;SDS011;11650;48.106;-1.696;2022-09-09T04:48:42;12.90;;;2.90;;
22967;SDS011;11650;48.106;-1.696;2022-09-09T04:51:08;15.13;;;2.90;;
22967;SDS011;11650;48.106;-1.696;2022-09-09T04:53:36;22.23;;;3.27;;
22967;SDS011;11650;48.106;-1.696;2022-09-09T04:56:13;14.20;;;2.60;;
22967;SDS011;11650;48.106;-1.696;2022-09-09T04:58:40;17.30;;;3.80;;
22967;SDS011;11650;48.106;-1.696;2022-09-09T05:01:19;23.47;;;3.20;;
22967;SDS011;11650;48.106;-1.696;2022-09-09T05:03:47;15.90;;;3.10;;
22967;SDS011;11650;48.106;-1.696;2022-09-09T05:06:16;19.33;;;4.70;;
22967;SDS011;11650;48.106;-1.696;2022-09-09T05:08:43;21.37;;;3.20;;
22967;SDS011;11650;48.106;-1.696;2022-09-09T05:13:43;20.40;;;3.50;;
22967;SDS011;11650;48.106;-1.696;2022-09-09T05:16:09;18.40;;;3.50;;
22967;SDS011;11650;48.106;-1.696;2022-09-09T05:18:36;12.57;;;2.40;;
22967;SDS011;11650;48.106;-1.696;2022-09-09T05:21:02;17.13;;;2.97;;
22967;SDS011;11650;48.106;-1.696;2022-09-09T05:23:28;15.97;;;3.23;;
22967;SDS011;11650;48.106;-1.696;2022-09-09T05:25:55;24.90;;;3.67;;
22967;SDS011;11650;48.106;-1.696;2022-09-09T05:28:22;16.70;;;3.07;;
22967;SDS011;11650;48.106;-1.696;2022-09-09T05:31:05;18.17;;;3.07;;
22967;SDS011;11650;48.106;-1.696;2022-09-09T05:33:37;14.50;;;3.07;;
22967;SDS011;11650;48.106;-1.696;2022-09-09T05:38:36;15.47;;;2.83;;
22967;SDS011;11650;48.106;-1.696;2022-09-09T05:41:03;17.80;;;3.10;;
22967;SDS011;11650;48.106;-1.696;2022-09-09T05:43:29;15.50;;;3.27;;
22967;SDS011;11650;48.106;-1.696;2022-09-09T05:46:00;20.37;;;3.47;;
22967;SDS011;11650;48.106;-1.696;2022-09-09T05:48:29;20.50;;;3.70;;
22967;SDS011;11650;48.106;-1.696;2022-09-09T05:50:56;22.33;;;3.87;;
22967;SDS011;11650;48.106;-1.696;2022-09-09T05:53:22;18.63;;;3.60;;
22967;SDS011;11650;48.106;-1.696;2022-09-09T05:55:47;16.70;;;3.67;;
22967;SDS011;11650;48.106;-1.696;2022-09-09T05:58:13;20.13;;;4.13;;
22967;SDS011;11650;48.106;-1.696;2022-09-09T06:00:40;15.47;;;3.00;;
22967;SDS011;11650;48.106;-1.696;2022-09-09T06:03:06;20.53;;;3.63;;
22967;SDS011;11650;48.106;-1.696;2022-09-09T06:05:31;19.37;;;3.63;;
22967;SDS011;11650;48.106;-1.696;2022-09-09T06:07:58;13.87;;;3.00;;
22967;SDS011;11650;48.106;-1.696;2022-09-09T06:10:24;22.80;;;3.67;;
22967;SDS011;11650;48.106;-1.696;2022-09-09T06:12:52;21.67;;;3.30;;
22967;SDS011;11650;48.106;-1.696;2022-09-09T06:15:18;16.80;;;3.40;;
22967;SDS011;11650;48.106;-1.696;2022-09-09T06:17:44;20.73;;;3.10;;
22967;SDS011;11650;48.106;-1.696;2022-09-09T06:20:10;20.53;;;3.83;;
22967;SDS011;11650;48.106;-1.696;2022-09-09T06:22:38;20.17;;;3.23;;
22967;SDS011;11650;48.106;-1.696;2022-09-09T06:25:05;19.07;;;3.30;;
22967;SDS011;11650;48.106;-1.696;2022-09-09T06:27:32;18.07;;;3.07;;
22967;SDS011;11650;48.106;-1.696;2022-09-09T06:29:58;22.60;;;2.97;;
22967;SDS011;11650;48.106;-1.696;2022-09-09T06:32:23;24.53;;;4.77;;
22967;SDS011;11650;48.106;-1.696;2022-09-09T06:34:51;19.63;;;3.50;;
22967;SDS011;11650;48.106;-1.696;2022-09-09T06:37:17;16.07;;;2.63;;
22967;SDS011;11650;48.106;-1.696;2022-09-09T06:39:42;21.20;;;3.53;;
22967;SDS011;11650;48.106;-1.696;2022-09-09T06:42:08;17.93;;;3.40;;
22967;SDS011;11650;48.106;-1.696;2022-09-09T06:44:34;20.77;;;3.83;;
22967;SDS011;11650;48.106;-1.696;2022-09-09T06:47:00;16.73;;;2.97;;
22967;SDS011;11650;48.106;-1.696;2022-09-09T06:49:25;16.83;;;3.30;;
22967;SDS011;11650;48.106;-1.696;2022-09-09T06:51:51;19.73;;;3.40;;
22967;SDS011;11650;48.106;-1.696;2022-09-09T06:54:17;17.63;;;3.37;;
22967;SDS011;11650;48.106;-1.696;2022-09-09T06:56:43;15.07;;;2.90;;
22967;SDS011;11650;48.106;-1.696;2022-09-09T06:59:10;17.50;;;3.57;;
22967;SDS011;11650;48.106;-1.696;2022-09-09T07:01:41;17.87;;;3.20;;
22967;SDS011;11650;48.106;-1.696;2022-09-09T07:04:11;16.60;;;3.23;;
22967;SDS011;11650;48.106;-1.696;2022-09-09T07:06:40;19.33;;;3.03;;
22967;SDS011;11650;48.106;-1.696;2022-09-09T07:09:09;17.60;;;3.07;;
22967;SDS011;11650;48.106;-1.696;2022-09-09T07:11:40;17.37;;;3.60;;
22967;SDS011;11650;48.106;-1.696;2022-09-09T07:14:07;21.57;;;3.60;;
22967;SDS011;11650;48.106;-1.696;2022-09-09T07:16:34;13.80;;;2.60;;
22967;SDS011;11650;48.106;-1.696;2022-09-09T07:19:02;15.40;;;3.53;;
22967;SDS011;11650;48.106;-1.696;2022-09-09T07:21:29;16.00;;;2.20;;
22967;SDS011;11650;48.106;-1.696;2022-09-09T07:23:56;12.90;;;2.83;;
22967;SDS011;11650;48.106;-1.696;2022-09-09T07:26:23;10.37;;;2.40;;
22967;SDS011;11650;48.106;-1.696;2022-09-09T07:28:51;14.23;;;2.20;;
22967;SDS011;11650;48.106;-1.696;2022-09-09T07:31:17;16.33;;;2.50;;
22967;SDS011;11650;48.106;-1.696;2022-09-09T07:33:48;13.27;;;3.03;;
22967;SDS011;11650;48.106;-1.696;2022-09-09T07:36:25;11.77;;;2.77;;
22967;SDS011;11650;48.106;-1.696;2022-09-09T07:39:03;10.73;;;2.93;;
22967;SDS011;11650;48.106;-1.696;2022-09-09T07:41:34;14.33;;;2.80;;
22967;SDS011;11650;48.106;-1.696;2022-09-09T07:44:09;18.93;;;2.77;;
22967;SDS011;11650;48.106;-1.696;2022-09-09T07:46:37;13.20;;;2.40;;
22967;SDS011;11650;48.106;-1.696;2022-09-09T07:49:06;19.13;;;3.17;;
22967;SDS011;11650;48.106;-1.696;2022-09-09T07:51:35;16.27;;;3.00;;
22967;SDS011;11650;48.106;-1.696;2022-09-09T07:54:03;10.90;;;2.83;;
22967;SDS011;11650;48.106;-1.696;2022-09-09T07:56:34;14.10;;;2.73;;
22967;SDS011;11650;48.106;-1.696;2022-09-09T07:59:00;20.30;;;3.30;;
22967;SDS011;11650;48.106;-1.696;2022-09-09T08:03:58;11.30;;;2.60;;
22967;SDS011;11650;48.106;-1.696;2022-09-09T08:06:29;12.67;;;2.53;;
22967;SDS011;11650;48.106;-1.696;2022-09-09T08:08:57;12.07;;;2.90;;
22967;SDS011;11650;48.106;-1.696;2022-09-09T08:11:23;15.40;;;3.10;;
22967;SDS011;11650;48.106;-1.696;2022-09-09T08:13:50;18.87;;;3.53;;
22967;SDS011;11650;48.106;-1.696;2022-09-09T08:16:17;13.53;;;2.40;;
22967;SDS011;11650;48.106;-1.696;2022-09-09T08:18:46;22.93;;;3.43;;
22967;SDS011;11650;48.106;-1.696;2022-09-09T08:21:17;18.17;;;3.27;;
22967;SDS011;11650;48.106;-1.696;2022-09-09T08:23:45;16.53;;;2.87;;
22967;SDS011;11650;48.106;-1.696;2022-09-09T08:26:22;14.17;;;3.37;;
22967;SDS011;11650;48.106;-1.696;2022-09-09T08:28:50;15.07;;;3.17;;
22967;SDS011;11650;48.106;-1.696;2022-09-09T08:31:21;16.50;;;2.90;;
22967;SDS011;11650;48.106;-1.696;2022-09-09T08:33:55;15.30;;;3.50;;
22967;SDS011;11650;48.106;-1.696;2022-09-09T08:36:24;20.20;;;3.60;;
22967;SDS011;11650;48.106;-1.696;2022-09-09T08:38:52;15.80;;;2.90;;
22967;SDS011;11650;48.106;-1.696;2022-09-09T08:43:48;12.73;;;3.00;;
22967;SDS011;11650;48.106;-1.696;2022-09-09T08:46:29;11.80;;;2.70;;
22967;SDS011;11650;48.106;-1.696;2022-09-09T08:51:59;22.23;;;3.43;;
22967;SDS011;11650;48.106;-1.696;2022-09-09T08:54:26;15.50;;;2.30;;
22967;SDS011;11650;48.106;-1.696;2022-09-09T08:56:58;13.53;;;2.80;;
22967;SDS011;11650;48.106;-1.696;2022-09-09T08:59:23;14.93;;;2.43;;
22967;SDS011;11650;48.106;-1.696;2022-09-09T09:13:04;13.83;;;2.80;;
22967;SDS011;11650;48.106;-1.696;2022-09-09T09:15:48;11.57;;;2.40;;
22967;SDS011;11650;48.106;-1.696;2022-09-09T09:18:19;14.67;;;2.83;;
22967;SDS011;11650;48.106;-1.696;2022-09-09T09:20:48;10.23;;;2.30;;
22967;SDS011;11650;48.106;-1.696;2022-09-09T09:23:24;10.93;;;2.40;;
22967;SDS011;11650;48.106;-1.696;2022-09-09T09:25:52;13.07;;;2.50;;
22967;SDS011;11650;48.106;-1.696;2022-09-09T09:28:25;12.83;;;2.57;;
22967;SDS011;11650;48.106;-1.696;2022-09-09T09:31:01;14.40;;;2.53;;
22967;SDS011;11650;48.106;-1.696;2022-09-09T09:36:11;12.80;;;2.27;;
22967;SDS011;11650;48.106;-1.696;2022-09-09T09:38:40;12.27;;;2.40;;
22967;SDS011;11650;48.106;-1.696;2022-09-09T09:41:30;14.47;;;3.00;;
22967;SDS011;11650;48.106;-1.696;2022-09-09T09:44:28;8.90;;;2.43;;
22967;SDS011;11650;48.106;-1.696;2022-09-09T09:49:38;9.60;;;2.10;;
22967;SDS011;11650;48.106;-1.696;2022-09-09T09:52:05;11.90;;;2.30;;
22967;SDS011;11650;48.106;-1.696;2022-09-09T09:54:38;9.17;;;1.87;;
22967;SDS011;11650;48.106;-1.696;2022-09-09T09:57:14;7.87;;;1.63;;
22967;SDS011;11650;48.106;-1.696;2022-09-09T09:59:41;9.90;;;1.93;;
22967;SDS011;11650;48.106;-1.696;2022-09-09T10:02:24;9.57;;;1.70;;
22967;SDS011;11650;48.106;-1.696;2022-09-09T10:05:01;7.63;;;1.93;;
22967;SDS011;11650;48.106;-1.696;2022-09-09T10:07:37;13.37;;;2.30;;
22967;SDS011;11650;48.106;-1.696;2022-09-09T10:10:04;10.27;;;2.00;;
22967;SDS011;11650;48.106;-1.696;2022-09-09T10:18:24;10.40;;;2.40;;
22967;SDS011;11650;48.106;-1.696;2022-09-09T10:32:13;7.13;;;2.00;;
22967;SDS011;11650;48.106;-1.696;2022-09-09T10:40:33;11.97;;;2.10;;
22967;SDS011;11650;48.106;-1.696;2022-09-09T10:43:07;11.43;;;2.20;;
22967;SDS011;11650;48.106;-1.696;2022-09-09T10:49:09;10.03;;;2.50;;
22967;SDS011;11650;48.106;-1.696;2022-09-09T10:57:25;6.60;;;1.70;;
22967;SDS011;11650;48.106;-1.696;2022-09-09T11:00:05;8.17;;;1.90;;
22967;SDS011;11650;48.106;-1.696;2022-09-09T11:02:39;10.07;;;2.17;;
22967;SDS011;11650;48.106;-1.696;2022-09-09T11:05:24;7.60;;;1.70;;
22967;SDS011;11650;48.106;-1.696;2022-09-09T11:07:59;6.83;;;1.57;;
22967;SDS011;11650;48.106;-1.696;2022-09-09T11:10:32;5.97;;;1.50;;
22967;SDS011;11650;48.106;-1.696;2022-09-09T11:13:03;7.10;;;1.77;;
22967;SDS011;11650;48.106;-1.696;2022-09-09T11:15:41;9.87;;;1.80;;
22967;SDS011;11650;48.106;-1.696;2022-09-09T11:18:12;5.47;;;1.37;;
22967;SDS011;11650;48.106;-1.696;2022-09-09T11:20:44;7.27;;;1.40;;
22967;SDS011;11650;48.106;-1.696;2022-09-09T11:23:13;5.67;;;1.60;;
22967;SDS011;11650;48.106;-1.696;2022-09-09T11:25:43;7.10;;;1.40;;
22967;SDS011;11650;48.106;-1.696;2022-09-09T11:44:39;6.77;;;1.93;;
22967;SDS011;11650;48.106;-1.696;2022-09-09T11:47:20;7.63;;;1.97;;
22967;SDS011;11650;48.106;-1.696;2022-09-09T11:49:54;8.30;;;1.60;;
22967;SDS011;11650;48.106;-1.696;2022-09-09T11:52:24;4.10;;;1.23;;
22967;SDS011;11650;48.106;-1.696;2022-09-09T12:03:02;6.10;;;1.30;;
22967;SDS011;11650;48.106;-1.696;2022-09-09T12:05:36;5.53;;;1.27;;
22967;SDS011;11650;48.106;-1.696;2022-09-09T12:08:05;5.63;;;1.30;;
22967;SDS011;11650;48.106;-1.696;2022-09-09T12:10:35;3.03;;;1.00;;
22967;SDS011;11650;48.106;-1.696;2022-09-09T12:13:23;3.67;;;1.20;;
22967;SDS011;11650;48.106;-1.696;2022-09-09T12:24:01;6.07;;;1.47;;
22967;SDS011;11650;48.106;-1.696;2022-09-09T12:26:49;5.07;;;1.17;;
22967;SDS011;11650;48.106;-1.696;2022-09-09T12:29:47;4.63;;;1.50;;
22967;SDS011;11650;48.106;-1.696;2022-09-09T12:32:22;9.50;;;1.60;;
22967;SDS011;11650;48.106;-1.696;2022-09-09T12:40:01;6.93;;;1.97;;
22967;SDS011;11650;48.106;-1.696;2022-09-09T12:42:32;11.00;;;1.73;;
22967;SDS011;11650;48.106;-1.696;2022-09-09T12:45:02;10.10;;;1.77;;
22967;SDS011;11650;48.106;-1.696;2022-09-09T12:47:43;5.77;;;1.50;;
22967;SDS011;11650;48.106;-1.696;2022-09-09T12:53:01;6.90;;;1.80;;
22967;SDS011;11650;48.106;-1.696;2022-09-09T12:55:35;4.77;;;1.20;;
22967;SDS011;11650;48.106;-1.696;2022-09-09T12:58:03;5.47;;;1.63;;
22967;SDS011;11650;48.106;-1.696;2022-09-09T13:00:31;6.93;;;1.67;;
22967;SDS011;11650;48.106;-1.696;2022-09-09T13:03:02;7.67;;;1.70;;
22967;SDS011;11650;48.106;-1.696;2022-09-09T13:05:40;5.47;;;1.30;;
22967;SDS011;11650;48.106;-1.696;2022-09-09T13:08:11;4.73;;;1.20;;
22967;SDS011;11650;48.106;-1.696;2022-09-09T13:10:47;6.03;;;1.60;;
22967;SDS011;11650;48.106;-1.696;2022-09-09T13:13:23;5.13;;;1.40;;
22967;SDS011;11650;48.106;-1.696;2022-09-09T13:15:58;7.30;;;1.50;;
22967;SDS011;11650;48.106;-1.696;2022-09-09T13:18:29;4.37;;;1.30;;
22967;SDS011;11650;48.106;-1.696;2022-09-09T13:20:58;4.30;;;1.20;;
22967;SDS011;11650;48.106;-1.696;2022-09-09T13:23:32;6.10;;;1.40;;
22967;SDS011;11650;48.106;-1.696;2022-09-09T13:26:01;6.17;;;1.30;;
22967;SDS011;11650;48.106;-1.696;2022-09-09T13:28:29;8.03;;;1.37;;
22967;SDS011;11650;48.106;-1.696;2022-09-09T13:30:56;6.43;;;1.13;;
22967;SDS011;11650;48.106;-1.696;2022-09-09T13:33:33;5.13;;;1.30;;
22967;SDS011;11650;48.106;-1.696;2022-09-09T13:36:06;7.53;;;1.87;;
22967;SDS011;11650;48.106;-1.696;2022-09-09T13:38:38;8.83;;;1.80;;
22967;SDS011;11650;48.106;-1.696;2022-09-09T13:41:22;7.00;;;1.80;;
22967;SDS011;11650;48.106;-1.696;2022-09-09T13:43:50;7.67;;;1.93;;
22967;SDS011;11650;48.106;-1.696;2022-09-09T13:46:32;8.43;;;2.17;;
22967;SDS011;11650;48.106;-1.696;2022-09-09T13:51:41;14.73;;;2.70;;
22967;SDS011;11650;48.106;-1.696;2022-09-09T13:54:12;8.43;;;2.17;;
22967;SDS011;11650;48.106;-1.696;2022-09-09T13:56:39;7.07;;;2.07;;
22967;SDS011;11650;48.106;-1.696;2022-09-09T13:59:08;7.57;;;1.83;;
22967;SDS011;11650;48.106;-1.696;2022-09-09T14:01:39;8.30;;;1.97;;
22967;SDS011;11650;48.106;-1.696;2022-09-09T14:04:06;9.37;;;2.10;;
22967;SDS011;11650;48.106;-1.696;2022-09-09T14:06:32;5.77;;;1.73;;
22967;SDS011;11650;48.106;-1.696;2022-09-09T14:09:00;9.43;;;1.97;;
22967;SDS011;11650;48.106;-1.696;2022-09-09T14:11:25;6.60;;;1.73;;
22967;SDS011;11650;48.106;-1.696;2022-09-09T14:13:51;7.13;;;1.80;;
22967;SDS011;11650;48.106;-1.696;2022-09-09T14:16:17;4.87;;;1.87;;
22967;SDS011;11650;48.106;-1.696;2022-09-09T14:18:43;5.70;;;1.40;;
22967;SDS011;11650;48.106;-1.696;2022-09-09T14:21:10;7.43;;;1.53;;
22967;SDS011;11650;48.106;-1.696;2022-09-09T14:23:37;5.50;;;1.17;;
22967;SDS011;11650;48.106;-1.696;2022-09-09T14:26:04;4.17;;;1.30;;
22967;SDS011;11650;48.106;-1.696;2022-09-09T14:28:31;4.93;;;1.10;;
22967;SDS011;11650;48.106;-1.696;2022-09-09T14:30:59;3.23;;;1.23;;
22967;SDS011;11650;48.106;-1.696;2022-09-09T14:33:26;3.70;;;1.30;;
22967;SDS011;11650;48.106;-1.696;2022-09-09T14:35:57;4.27;;;1.23;;
22967;SDS011;11650;48.106;-1.696;2022-09-09T14:38:24;4.83;;;1.43;;
22967;SDS011;11650;48.106;-1.696;2022-09-09T14:40:50;5.13;;;1.40;;
22967;SDS011;11650;48.106;-1.696;2022-09-09T14:43:16;3.03;;;0.87;;
22967;SDS011;11650;48.106;-1.696;2022-09-09T14:45:42;2.60;;;0.90;;
22967;SDS011;11650;48.106;-1.696;2022-09-09T14:48:08;3.80;;;1.13;;
22967;SDS011;11650;48.106;-1.696;2022-09-09T14:50:34;2.13;;;0.87;;
22967;SDS011;11650;48.106;-1.696;2022-09-09T14:53:01;4.43;;;0.90;;
22967;SDS011;11650;48.106;-1.696;2022-09-09T14:55:27;3.50;;;0.90;;
22967;SDS011;11650;48.106;-1.696;2022-09-09T14:57:54;6.40;;;1.33;;
22967;SDS011;11650;48.106;-1.696;2022-09-09T15:00:19;3.53;;;0.90;;
22967;SDS011;11650;48.106;-1.696;2022-09-09T15:02:45;4.27;;;1.13;;
22967;SDS011;11650;48.106;-1.696;2022-09-09T15:05:11;6.53;;;1.30;;
22967;SDS011;11650;48.106;-1.696;2022-09-09T15:07:37;8.67;;;1.43;;
22967;SDS011;11650;48.106;-1.696;2022-09-09T15:10:03;4.43;;;1.30;;
22967;SDS011;11650;48.106;-1.696;2022-09-09T15:17:20;6.40;;;1.30;;
22967;SDS011;11650;48.106;-1.696;2022-09-09T15:19:46;5.50;;;1.40;;
22967;SDS011;11650;48.106;-1.696;2022-09-09T15:22:12;4.93;;;1.40;;
22967;SDS011;11650;48.106;-1.696;2022-09-09T15:24:38;8.43;;;1.73;;
22967;SDS011;11650;48.106;-1.696;2022-09-09T15:27:03;7.43;;;1.40;;
22967;SDS011;11650;48.106;-1.696;2022-09-09T15:29:29;4.20;;;1.20;;
22967;SDS011;11650;48.106;-1.696;2022-09-09T15:31:55;5.27;;;1.73;;
22967;SDS011;11650;48.106;-1.696;2022-09-09T15:34:21;5.07;;;1.20;;
22967;SDS011;11650;48.106;-1.696;2022-09-09T15:36:47;3.93;;;1.40;;
22967;SDS011;11650;48.106;-1.696;2022-09-09T15:39:14;5.83;;;1.40;;
22967;SDS011;11650;48.106;-1.696;2022-09-09T15:41:44;5.70;;;1.70;;
22967;SDS011;11650;48.106;-1.696;2022-09-09T15:44:11;5.70;;;1.60;;
22967;SDS011;11650;48.106;-1.696;2022-09-09T15:46:41;5.77;;;1.53;;
22967;SDS011;11650;48.106;-1.696;2022-09-09T15:49:10;4.90;;;1.40;;
22967;SDS011;11650;48.106;-1.696;2022-09-09T15:51:38;8.20;;;1.37;;
22967;SDS011;11650;48.106;-1.696;2022-09-09T15:54:06;6.80;;;1.57;;
22967;SDS011;11650;48.106;-1.696;2022-09-09T15:56:31;8.50;;;1.33;;
22967;SDS011;11650;48.106;-1.696;2022-09-09T15:58:58;7.07;;;1.43;;
22967;SDS011;11650;48.106;-1.696;2022-09-09T16:01:25;6.80;;;1.43;;
22967;SDS011;11650;48.106;-1.696;2022-09-09T16:03:51;7.73;;;1.60;;
22967;SDS011;11650;48.106;-1.696;2022-09-09T16:06:18;8.30;;;1.23;;
22967;SDS011;11650;48.106;-1.696;2022-09-09T16:08:46;4.43;;;1.20;;
22967;SDS011;11650;48.106;-1.696;2022-09-09T16:11:18;7.57;;;1.70;;
22967;SDS011;11650;48.106;-1.696;2022-09-09T16:13:49;8.97;;;1.10;;
22967;SDS011;11650;48.106;-1.696;2022-09-09T17:15:41;6.03;;;1.63;;
22967;SDS011;11650;48.106;-1.696;2022-09-09T17:18:08;8.40;;;1.70;;
22967;SDS011;11650;48.106;-1.696;2022-09-09T17:20:41;7.77;;;1.63;;
22967;SDS011;11650;48.106;-1.696;2022-09-09T17:23:07;8.97;;;1.60;;
22967;SDS011;11650;48.106;-1.696;2022-09-09T17:25:34;7.20;;;1.17;;
22967;SDS011;11650;48.106;-1.696;2022-09-09T17:28:00;8.10;;;1.97;;
22967;SDS011;11650;48.106;-1.696;2022-09-09T17:30:29;7.70;;;1.73;;
22967;SDS011;11650;48.106;-1.696;2022-09-09T17:32:59;3.67;;;0.93;;
22967;SDS011;11650;48.106;-1.696;2022-09-09T17:35:25;3.67;;;1.03;;
22967;SDS011;11650;48.106;-1.696;2022-09-09T17:37:52;5.73;;;1.30;;
22967;SDS011;11650;48.106;-1.696;2022-09-09T17:40:19;6.87;;;2.50;;
22967;SDS011;11650;48.106;-1.696;2022-09-09T17:42:45;6.67;;;1.70;;
22967;SDS011;11650;48.106;-1.696;2022-09-09T17:45:12;7.20;;;1.50;;
22967;SDS011;11650;48.106;-1.696;2022-09-09T17:47:38;5.17;;;1.20;;
22967;SDS011;11650;48.106;-1.696;2022-09-09T17:50:05;5.73;;;1.17;;
22967;SDS011;11650;48.106;-1.696;2022-09-09T17:52:31;6.10;;;1.30;;
22967;SDS011;11650;48.106;-1.696;2022-09-09T17:54:57;4.30;;;1.23;;
22967;SDS011;11650;48.106;-1.696;2022-09-09T17:57:23;4.57;;;1.40;;
22967;SDS011;11650;48.106;-1.696;2022-09-09T17:59:49;5.47;;;0.90;;
22967;SDS011;11650;48.106;-1.696;2022-09-09T18:02:15;4.60;;;1.30;;
22967;SDS011;11650;48.106;-1.696;2022-09-09T18:04:41;4.07;;;1.00;;
22967;SDS011;11650;48.106;-1.696;2022-09-09T18:07:07;5.43;;;1.50;;
22967;SDS011;11650;48.106;-1.696;2022-09-09T18:09:33;5.43;;;1.30;;
22967;SDS011;11650;48.106;-1.696;2022-09-09T18:11:59;4.50;;;1.47;;
22967;SDS011;11650;48.106;-1.696;2022-09-09T18:14:26;3.70;;;1.37;;
22967;SDS011;11650;48.106;-1.696;2022-09-09T18:16:55;7.80;;;1.80;;
22967;SDS011;11650;48.106;-1.696;2022-09-09T18:19:22;7.63;;;1.83;;